Time;durP1;ratioP1;P1;durP2;ratioP2;P2;SDS_P1;SDS_P2;PMS_P1;PMS_P2;Temp;Humidity;BMP_temperature;BMP_pressure;BME280_temperature;BME280_humidity;BME280_pressure;Samples;Min_cycle;Max_cycle;Signal;HPM_P1;HPM_P2
2022/08/05 01:41:21;;;;;;;49.08;27.10;;;;;;;21.95;64.00;100109.38;6151509;23;20096;-94
2022/08/05 01:43:50;;;;;;;50.92;25.63;;;;;;;22.11;64.71;100142.66;6082894;23;20022;-91
2022/08/05 01:46:18;;;;;;;44.47;25.15;;;;;;;21.77;64.95;100089.56;6085456;23;20013;-91
2022/08/05 01:48:45;;;;;;;45.95;26.85;;;;;;;22.03;65.01;100129.78;6084671;23;20013;-92
2022/08/05 01:51:13;;;;;;;45.30;26.40;;;;;;;22.13;63.40;100140.31;6082861;23;20431;-89
2022/08/05 01:53:40;;;;;;;42.95;25.40;;;;;;;22.35;65.11;100165.78;6132896;23;20053;-91
2022/08/05 01:56:06;;;;;;;;;;;;;;;22.39;63.04;100167.47;6109425;23;20096;-92
2022/08/05 01:58:33;;;;;;;;;;;;;;;22.41;62.56;100169.84;6085246;23;19967;-92
2022/08/05 02:01:03;;;;;;;51.22;28.05;;;;;;;22.03;62.02;100111.09;6084506;23;19917;-92
2022/08/05 02:03:35;;;;;;;58.80;29.15;;;;;;;21.89;62.06;100090.56;6108826;23;20103;-92
2022/08/05 02:06:04;;;;;;;59.47;26.52;;;;;;;22.08;62.44;100120.31;6084533;23;20013;-90
2022/08/05 02:08:34;;;;;;;76.93;28.55;;;;;;;21.97;62.70;100093.09;6084062;23;20024;-90
2022/08/05 02:11:11;;;;;;;50.58;28.05;;;;;;;22.48;62.29;100168.00;6082327;23;20021;-88
2022/08/05 02:14:26;;;;;;;66.68;29.00;;;;;;;22.46;62.33;100162.00;6134458;23;20021;-89
2022/08/05 02:16:57;;;;;;;70.00;29.60;;;;;;;22.44;62.47;100175.50;6121719;23;20021;-90
2022/08/05 02:19:36;;;;;;;61.53;29.05;;;;;;;22.29;62.85;100154.16;6108188;23;20064;-90
2022/08/05 02:22:14;;;;;;;51.88;29.05;;;;;;;22.27;62.98;100150.91;6130016;23;20021;-90
2022/08/05 02:24:46;;;;;;;65.90;29.52;;;;;;;22.27;62.81;100157.28;6082581;23;20018;-90
2022/08/05 02:27:14;;;;;;;60.03;30.80;;;;;;;22.13;62.74;100137.53;6106263;23;20010;-90
2022/08/05 02:29:43;;;;;;;55.60;29.42;;;;;;;22.18;63.05;100148.38;6106167;23;20033;-90
2022/08/05 02:32:12;;;;;;;60.92;33.10;;;;;;;22.36;63.08;100187.69;6081424;23;20021;-88
2022/08/05 02:34:40;;;;;;;52.47;30.58;;;;;;;22.28;62.82;100183.16;6107049;23;20028;-87
2022/08/05 02:37:09;;;;;;;48.03;29.67;;;;;;;21.94;62.82;100135.59;6158062;23;20025;-90
2022/08/05 02:42:43;;;;;;;100.75;31.60;;;;;;;22.06;63.19;100151.34;6043112;23;20027;-90
2022/08/05 02:45:11;;;;;;;91.15;32.22;;;;;;;21.83;63.37;100115.13;6019376;23;20023;-91
2022/08/05 02:47:39;;;;;;;66.85;29.85;;;;;;;22.00;63.27;100156.38;6019604;23;20018;-92
2022/08/05 02:50:06;;;;;;;185.07;37.25;;;;;;;21.88;63.33;100134.28;6022662;23;20026;-90
2022/08/05 02:52:34;;;;;;;159.60;35.80;;;;;;;22.18;63.75;100179.00;6018926;23;20022;-91
2022/08/05 02:55:01;;;;;;;85.45;29.80;;;;;;;21.93;63.61;100147.91;6065304;23;20449;-92
2022/08/05 02:57:30;;;;;;;58.60;29.65;;;;;;;22.10;63.78;100173.66;6017718;23;20023;-92
2022/08/05 02:59:56;;;;;;;57.05;29.83;;;;;;;22.34;63.56;100215.13;6018914;23;20050;-91
2022/08/05 03:02:28;;;;;;;54.80;28.95;;;;;;;22.11;63.62;100180.84;6042727;23;20054;-91
2022/08/05 03:05:12;;;;;;;63.90;29.35;;;;;;;22.34;63.62;100217.91;6019294;23;20023;-90
2022/08/05 03:08:04;;;;;;;67.68;28.65;;;;;;;22.33;63.36;100221.88;6066262;23;20030;-89
2022/08/05 03:10:31;;;;;;;64.25;28.10;;;;;;;22.03;63.93;100168.78;6042947;23;20049;-91
2022/08/05 03:12:58;;;;;;;52.33;27.55;;;;;;;21.94;63.59;100145.94;6022817;23;20107;-92
2022/08/05 03:15:24;;;;;;;64.80;29.27;;;;;;;22.21;64.11;100197.78;6020151;23;20154;-91
2022/08/05 03:18:15;;;;;;;70.03;28.95;;;;;;;22.39;63.63;100222.38;6020880;23;20571;-91
2022/08/05 03:20:41;;;;;;;60.35;28.67;;;;;;;22.17;63.02;100194.13;6086771;23;20026;-90
2022/08/05 03:23:10;;;;;;;61.88;28.50;;;;;;;22.02;63.50;100175.53;6138162;23;20021;-90
2022/08/05 03:25:38;;;;;;;57.65;29.15;;;;;;;21.97;63.70;100154.34;6089564;23;20013;-92
2022/08/05 03:28:06;;;;;;;53.83;29.42;;;;;;;22.28;63.74;100209.06;6088219;23;20018;-91
2022/08/05 03:30:33;;;;;;;62.08;29.70;;;;;;;22.00;64.30;100166.72;6110458;23;20022;-91
2022/08/05 03:33:27;;;;;;;58.08;29.83;;;;;;;22.28;64.94;100219.38;6111278;23;20405;-92
2022/08/05 03:36:01;;;;;;;48.88;28.58;;;;;;;22.15;64.62;100196.50;6084943;23;20076;-90
2022/08/05 03:38:27;;;;;;;66.35;31.40;;;;;;;22.12;64.87;100191.63;6106895;23;20009;-91
2022/08/05 03:40:53;;;;;;;56.65;29.20;;;;;;;22.48;64.68;100246.03;6083662;23;20018;-91
2022/08/05 03:43:23;;;;;;;52.10;28.65;;;;;;;21.95;64.67;100161.44;6109065;23;20021;-91
2022/08/05 03:45:50;;;;;;;52.55;29.67;;;;;;;22.34;64.66;100217.91;6106420;23;20474;-89
2022/08/05 03:48:18;;;;;;;52.30;30.38;;;;;;;22.36;65.28;100223.13;6087173;23;20045;-93
2022/08/05 03:50:53;;;;;;;214.20;36.15;;;;;;;22.05;64.71;100171.97;6087214;23;20048;-93
2022/08/05 03:54:05;;;;;;;244.23;37.15;;;;;;;22.60;64.73;100250.59;6087253;23;20018;-93
2022/08/05 03:56:37;;;;;;;263.13;38.28;;;;;;;22.64;64.70;100254.25;6115001;23;20113;-93
2022/08/05 03:59:12;;;;;;;300.70;40.53;;;;;;;22.35;64.67;100213.97;6091146;23;20017;-93
2022/08/05 04:01:44;;;;;;;393.17;47.45;;;;;;;22.54;64.46;100220.63;6111280;23;20042;-90
2022/08/05 04:04:15;;;;;;;179.18;35.28;;;;;;;22.65;64.56;100244.72;6086418;23;20018;-92
2022/08/05 04:06:42;;;;;;;168.57;34.00;;;;;;;22.50;64.03;100209.44;6108308;23;20534;-92
2022/08/05 04:09:13;;;;;;;116.28;33.53;;;;;;;22.53;64.27;100208.69;6085856;23;20080;-93
2022/08/05 04:11:40;;;;;;;99.55;31.45;;;;;;;22.35;63.97;100176.91;6109982;23;20175;-91
2022/08/05 04:14:07;;;;;;;103.47;32.92;;;;;;;22.59;63.56;100209.19;6084416;23;20403;-93
2022/08/05 04:16:34;;;;;;;76.47;29.98;;;;;;;22.81;63.65;100236.22;6084995;23;20116;-93
2022/08/05 04:19:27;;;;;;;74.10;29.60;;;;;;;23.06;63.58;100270.13;6107147;23;20411;-93
2022/08/05 04:21:53;;;;;;;59.17;31.80;;;;;;;22.72;63.05;100211.41;6107265;23;20024;-92
2022/08/05 04:24:23;;;;;;;75.88;35.75;;;;;;;22.93;63.15;100236.06;6108273;23;20010;-92
2022/08/05 04:27:18;;;;;;;91.65;36.55;;;;;;;22.93;63.43;100215.72;6084827;23;20482;-93
2022/08/05 04:29:44;;;;;;;72.53;34.83;;;;;;;22.95;63.34;100216.19;6018200;23;20023;-93
2022/08/05 04:32:17;;;;;;;165.95;39.40;;;;;;;23.15;62.73;100237.19;5992847;23;20063;-93
2022/08/05 04:34:43;;;;;;;142.10;37.83;;;;;;;22.94;63.22;100197.81;5969758;23;20018;-92
2022/08/05 04:37:09;;;;;;;523.72;55.58;;;;;;;23.09;63.16;100218.38;5992701;23;20019;-92
2022/08/05 04:39:37;;;;;;;;;;;;;;;23.51;63.25;100267.59;6016506;23;20042;-92
2022/08/05 04:42:03;;;;;;;71.82;33.15;;;;;;;23.38;62.37;100233.53;5971234;23;20024;-93
2022/08/05 04:44:33;;;;;;;112.45;43.42;;;;;;;23.29;62.10;100205.09;5972950;23;20027;-93
2022/08/05 04:47:00;;;;;;;186.93;46.55;;;;;;;23.68;61.64;100267.88;6018875;23;20011;-93
2022/08/05 04:49:26;;;;;;;77.82;37.28;;;;;;;23.72;61.61;100258.75;5970968;23;20034;-92
2022/08/05 04:52:15;;;;;;;54.78;31.33;;;;;;;23.83;61.58;100260.47;5994035;23;20039;-93
2022/08/05 04:54:41;;;;;;;52.97;29.15;;;;;;;23.52;61.16;100213.38;5971526;23;20109;-93
2022/08/05 04:57:07;;;;;;;54.88;26.20;;;;;;;23.50;60.16;100202.59;5995793;23;20015;-94
2022/08/05 04:59:35;;;;;;;41.47;23.20;;;;;;;23.62;59.33;100224.69;5971007;23;20019;-88
2022/08/05 05:02:04;;;;;;;89.32;24.88;;;;;;;23.94;59.80;100254.22;5993308;23;20023;-93
2022/08/05 05:04:31;;;;;;;54.67;24.70;;;;;;;23.75;59.36;100196.56;5995000;23;20481;-93
2022/08/05 05:07:00;;;;;;;40.72;24.38;;;;;;;23.63;59.46;100170.47;6094807;23;20021;-92
2022/08/05 05:09:27;;;;;;;41.28;23.40;;;;;;;23.99;58.82;100221.16;6085939;23;20100;-91
2022/08/05 05:11:53;;;;;;;45.05;22.55;;;;;;;24.09;58.28;100219.69;6084031;23;20047;-91
2022/08/05 05:15:11;;;;;;;54.63;23.45;;;;;;;24.43;58.90;100258.78;6132492;23;20101;-92
2022/08/05 05:17:39;;;;;;;48.00;23.80;;;;;;;24.13;58.84;100198.97;6104920;23;20017;-89
2022/08/05 05:20:08;;;;;;;56.75;23.23;;;;;;;24.27;58.03;100203.91;6105424;23;20391;-90
2022/08/05 05:22:35;;;;;;;43.45;22.90;;;;;;;24.36;58.13;100206.38;6157088;23;20025;-93
2022/08/05 05:25:05;;;;;;;48.67;21.67;;;;;;;24.67;57.58;100247.03;6087251;23;20015;-92
2022/08/05 05:27:33;;;;;;;42.20;21.83;;;;;;;24.64;57.93;100217.06;6088486;23;20112;-91
2022/08/05 05:30:03;;;;;;;39.95;20.45;;;;;;;24.64;55.72;100205.06;6112641;23;20447;-92
2022/08/05 05:32:36;;;;;;;41.55;20.67;;;;;;;24.85;56.54;100219.22;6108862;23;20024;-89
2022/08/05 05:35:02;;;;;;;50.30;24.08;;;;;;;25.00;55.74;100215.34;6084293;23;20045;-90
2022/08/05 05:38:11;;;;;;;34.47;17.38;;;;;;;24.96;54.66;100206.09;6107789;23;20065;-91
2022/08/05 05:40:38;;;;;;;39.92;17.08;;;;;;;25.11;53.59;100211.81;5995114;23;20113;-92
2022/08/05 05:43:05;;;;;;;51.95;20.35;;;;;;;25.52;54.35;100257.25;5990735;23;20023;-90
2022/08/05 05:45:40;;;;;;;42.38;22.55;;;;;;;25.40;53.37;100230.41;5990756;23;20058;-92
2022/08/05 05:48:07;;;;;;;50.10;23.10;;;;;;;25.42;52.66;100216.81;6013902;23;20471;-89
2022/08/05 05:50:39;;;;;;;40.08;20.52;;;;;;;25.50;53.08;100224.06;6037772;23;20046;-88
2022/08/05 05:53:08;;;;;;;69.97;24.42;;;;;;;25.65;51.14;100224.13;6013159;23;20019;-89
2022/08/05 05:55:34;;;;;;;51.17;24.67;;;;;;;26.04;51.16;100268.34;6014028;23;20173;-84
2022/08/05 05:58:00;;;;;;;71.78;21.17;;;;;;;25.97;50.58;100257.91;6036297;23;20051;-84
2022/08/05 06:15:35;;;;;;;70.28;22.08;;;;;;;26.32;54.67;100276.00;6044491;23;20137;-90
2022/08/05 06:19:10;;;;;;;77.82;26.00;;;;;;;26.17;53.48;100230.34;5902352;24;20112;-91
2022/08/05 06:23:07;;;;;;;50.65;21.13;;;;;;;25.95;52.33;100188.22;6069771;23;20069;-93
2022/08/05 06:42:18;;;;;;;;;;;;;;;;;;;;;
2022/08/05 06:45:56;;;;;;;;;;;;;;;;;;;;;
2022/08/05 06:49:06;;;;;;;21.73;10.73;;;;;;;26.48;47.73;100203.56;6162155;23;20120;-93
2022/08/05 07:08:26;;;;;;;;;;;;;;;;;;;;;
2022/08/05 07:11:38;;;;;;;52.35;18.60;;;;;;;26.68;45.14;100190.75;5962813;24;20024;-94
2022/08/05 07:16:59;;;;;;;52.08;14.93;;;;;;;27.03;46.03;100230.41;5958456;24;20021;-93
2022/08/05 07:20:17;;;;;;;46.17;13.07;;;;;;;26.77;44.37;100176.31;5913762;24;20016;-95
2022/08/05 07:23:29;;;;;;;60.58;18.10;;;;;;;27.24;46.35;100238.81;5757718;24;20032;-87
2022/08/05 07:25:55;;;;;;;81.68;19.08;;;;;;;27.14;44.62;100225.59;5806220;24;20389;-90
2022/08/05 07:28:25;;;;;;;64.88;12.98;;;;;;;27.40;44.65;100264.47;5880080;24;20037;-89
2022/08/05 07:30:51;;;;;;;43.00;12.75;;;;;;;27.27;45.54;100246.44;5830271;24;20112;-93
2022/08/05 07:33:20;;;;;;;36.40;11.80;;;;;;;27.25;42.72;100228.38;5827018;24;20029;-91
2022/08/05 07:35:47;;;;;;;34.15;12.05;;;;;;;27.30;44.90;100236.41;5870713;24;20152;-90
2022/08/05 07:38:17;;;;;;;30.08;10.13;;;;;;;27.46;43.91;100247.22;5826757;24;20450;-90
2022/08/05 07:40:44;;;;;;;29.67;10.32;;;;;;;27.33;42.78;100225.16;5848389;24;20053;-91
2022/08/05 07:43:12;;;;;;;37.63;10.45;;;;;;;27.11;43.84;100178.66;5856658;23;20019;-93
2022/08/05 07:45:43;;;;;;;26.42;9.98;;;;;;;27.22;42.57;100187.09;5968321;23;20023;-94
2022/08/05 07:48:24;;;;;;;29.77;11.05;;;;;;;27.56;42.44;100237.94;5991909;23;20484;-90
2022/08/05 07:51:14;;;;;;;32.50;11.52;;;;;;;27.78;44.66;100261.97;5996788;23;20023;-92
2022/08/05 07:53:45;;;;;;;16.88;9.30;;;;;;;27.38;42.49;100193.06;5967912;23;20030;-92
2022/08/05 07:56:14;;;;;;;19.23;9.45;;;;;;;27.52;42.18;100214.69;5991692;23;20078;-93
2022/08/05 07:58:56;;;;;;;43.38;10.90;;;;;;;27.46;42.98;100189.03;5980527;23;20018;-94
2022/08/05 08:05:33;;;;;;;22.40;9.60;;;;;;;28.05;42.34;100259.44;6110067;23;20033;-93
2022/08/05 08:08:00;;;;;;;33.90;11.63;;;;;;;27.53;43.59;100174.16;6045515;23;20019;-89
2022/08/05 08:10:26;;;;;;;29.25;10.45;;;;;;;27.70;41.06;100204.19;6069256;23;20103;-90
2022/08/05 08:13:37;;;;;;;42.03;11.90;;;;;;;27.78;42.79;100219.00;6031067;23;20023;-95
2022/08/05 08:17:20;;;;;;;36.53;12.50;;;;;;;28.17;41.77;100263.00;6069158;23;20113;-93
2022/08/05 08:20:08;;;;;;;26.10;10.15;;;;;;;27.87;41.65;100211.75;5961761;24;20486;-92
2022/08/05 08:38:34;;;;;;;38.58;10.65;;;;;;;28.12;41.69;100224.09;6157020;23;20029;-92
2022/08/05 08:41:55;;;;;;;119.85;13.90;;;;;;;28.28;40.43;100256.13;6113486;23;20106;-92
2022/08/05 08:44:39;;;;;;;37.20;11.50;;;;;;;27.72;41.11;100158.84;6119500;23;20029;-96
2022/08/05 08:48:04;;;;;;;31.35;10.60;;;;;;;27.94;40.92;100182.00;6145317;23;20017;-93
2022/08/05 08:50:56;;;;;;;26.87;11.13;;;;;;;27.81;41.03;100150.75;6039632;23;20038;-91
2022/08/05 08:57:12;;;;;;;39.72;11.35;;;;;;;28.53;40.49;100255.16;6141729;23;20036;-92
2022/08/05 08:59:42;;;;;;;35.97;11.57;;;;;;;27.94;40.51;100159.53;6141226;23;20018;-94
2022/08/05 09:07:04;;;;;;;124.00;19.20;;;;;;;27.90;41.53;100164.38;6193943;23;20031;-94
2022/08/05 09:17:15;;;;;;;50.20;15.30;;;;;;;28.18;40.48;100167.00;6160117;23;20037;-95
2022/08/05 09:20:18;;;;;;;68.10;14.15;;;;;;;28.18;41.61;100164.19;6088494;23;20022;-94
2022/08/05 09:23:16;;;;;;;62.58;14.15;;;;;;;28.69;39.55;100246.22;6104853;23;20024;-92
2022/08/05 09:25:46;;;;;;;39.67;13.18;;;;;;;28.40;41.29;100195.78;6083175;23;20112;-90
2022/08/05 09:28:17;;;;;;;24.55;10.90;;;;;;;28.44;39.87;100181.69;6106717;23;20439;-90
2022/08/05 09:30:57;;;;;;;20.42;11.02;;;;;;;28.82;39.19;100230.41;6106438;23;20017;-93
2022/08/05 09:34:14;;;;;;;38.38;12.45;;;;;;;28.77;38.03;100226.06;6086846;23;20027;-92
2022/08/05 09:36:49;;;;;;;27.17;12.93;;;;;;;28.25;39.55;100140.84;6112181;23;20017;-89
2022/08/05 09:39:23;;;;;;;33.78;11.90;;;;;;;28.34;42.03;100161.66;6110604;23;20017;-89
2022/08/05 09:41:59;;;;;;;42.97;15.32;;;;;;;28.86;42.61;100230.38;6108460;23;20024;-88
2022/08/05 09:44:49;;;;;;;33.75;14.98;;;;;;;28.53;42.44;100160.31;6160466;23;20024;-89
2022/08/05 09:47:41;;;;;;;30.95;14.55;;;;;;;29.04;42.30;100219.81;6111862;23;20018;-94
2022/08/05 09:50:07;;;;;;;83.70;15.00;;;;;;;28.98;41.81;100199.72;6115822;23;20021;-92
2022/08/05 09:52:38;;;;;;;35.95;13.75;;;;;;;28.79;40.82;100170.13;6111101;23;20017;-92
2022/08/05 09:55:10;;;;;;;25.48;13.57;;;;;;;28.89;41.25;100176.06;6095892;23;20021;-90
2022/08/05 09:57:40;;;;;;;26.80;13.45;;;;;;;29.23;41.89;100222.00;6109621;23;20045;-93
2022/08/05 10:00:16;;;;;;;31.95;12.55;;;;;;;29.24;41.73;100215.16;6114530;23;20002;-91
2022/08/05 10:02:48;;;;;;;32.22;14.02;;;;;;;28.76;40.99;100133.59;6116366;23;20022;-93
2022/08/05 10:05:28;;;;;;;29.98;12.90;;;;;;;29.17;38.72;100187.09;6112714;23;20025;-93
2022/08/05 10:07:59;;;;;;;23.08;12.00;;;;;;;29.29;37.84;100199.81;6085240;23;20052;-90
2022/08/05 10:10:50;;;;;;;39.97;13.60;;;;;;;29.36;41.18;100199.72;6112420;23;20021;-92
2022/08/05 10:13:40;;;;;;;26.17;12.63;;;;;;;29.42;39.75;100205.72;6135206;23;20071;-92
2022/08/05 10:16:30;;;;;;;38.28;11.63;;;;;;;28.92;38.04;100127.41;6071782;23;20074;-93
2022/08/05 10:18:58;;;;;;;25.95;11.57;;;;;;;29.24;40.21;100175.75;6093436;23;20028;-92
2022/08/05 10:21:28;;;;;;;24.67;10.32;;;;;;;29.46;36.72;100200.81;6056606;23;20025;-92
2022/08/05 10:24:05;;;;;;;31.10;11.38;;;;;;;29.38;39.73;100169.13;6057245;23;20017;-95
2022/08/05 10:26:32;;;;;;;28.42;11.60;;;;;;;29.36;40.03;100157.47;6061847;23;20022;-91
2022/08/05 10:29:15;;;;;;;21.20;12.23;;;;;;;29.55;39.02;100166.53;6062584;23;20017;-93
2022/08/05 10:31:42;;;;;;;25.80;11.73;;;;;;;29.38;39.84;100126.09;6059354;23;20137;-96
2022/08/05 12:51:19;;;;;;;20.63;10.27;;;;;;;31.50;32.71;100065.63;6144579;23;20036;-93
2022/08/05 12:54:31;;;;;;;17.05;9.65;;;;;;;31.81;31.96;100090.78;6111830;23;20018;-86
2022/08/05 12:57:03;;;;;;;18.80;9.57;;;;;;;31.96;32.24;100103.38;6158960;23;20045;-90
2022/08/05 12:59:41;;;;;;;21.33;10.20;;;;;;;31.89;33.47;100092.25;6131629;23;20463;-93
2022/08/05 13:02:10;;;;;;;30.00;10.27;;;;;;;32.30;31.83;100124.78;6109152;23;20017;-95
2022/08/05 13:04:47;;;;;;;18.67;10.45;;;;;;;31.89;32.84;100049.81;6108609;23;20149;-86
2022/08/05 13:10:09;;;;;;;17.45;9.38;;;;;;;32.54;32.59;100119.75;6104357;23;20021;-91
2022/08/05 13:16:21;;;;;;;45.78;11.13;;;;;;;32.55;33.75;100117.69;6072130;23;20062;-89
2022/08/05 13:19:00;;;;;;;50.17;11.30;;;;;;;32.22;29.88;100041.28;6098310;23;20046;-87
2022/08/05 13:25:18;;;;;;;37.38;9.88;;;;;;;32.47;30.25;100069.78;5963459;23;20049;-92
2022/08/05 13:27:53;;;;;;;68.03;10.80;;;;;;;31.86;30.03;100027.25;5987009;23;20027;-94
2022/08/05 13:30:25;;;;;;;89.60;11.77;;;;;;;32.02;30.05;100066.84;5963171;23;20027;-89
2022/08/05 13:32:55;;;;;;;56.05;11.18;;;;;;;31.75;29.40;100067.88;5988642;23;20027;-96
2022/08/05 13:35:21;;;;;;;26.15;8.88;;;;;;;31.28;30.19;100050.34;6054814;23;20113;-88
2022/08/05 13:38:07;;;;;;;42.45;11.40;;;;;;;30.94;32.50;100051.47;6011982;23;20056;-88
2022/08/05 13:40:33;;;;;;;;;;;;;;;31.22;32.22;100112.22;5989440;23;20068;-92
2022/08/05 13:43:03;;;;;;;92.78;13.52;;;;;;;31.04;32.76;100097.69;6095630;23;19921;-90
2022/08/05 13:48:48;;;;;;;50.15;14.20;;;;;;;30.12;33.61;100005.81;6173767;23;20375;-88
2022/08/05 13:51:43;;;;;;;58.03;11.18;;;;;;;30.67;33.81;100100.34;6133679;23;20084;-93
2022/08/05 13:54:10;;;;;;;39.58;11.05;;;;;;;30.38;33.66;100037.22;6131653;23;20013;-90
2022/08/05 13:56:41;;;;;;;30.13;10.93;;;;;;;30.90;31.73;100104.41;6107025;23;20355;-88
2022/08/05 13:59:08;;;;;;;51.70;11.70;;;;;;;30.82;32.24;100078.31;6131078;23;20017;-89
2022/08/05 14:01:41;;;;;;;74.00;12.95;;;;;;;31.09;32.67;100094.31;6131036;23;20025;-88
2022/08/05 14:07:35;;;;;;;45.08;12.77;;;;;;;30.86;32.36;100033.06;6130199;23;20095;-88
2022/08/05 14:12:52;;;;;;;106.78;15.10;;;;;;;30.65;33.56;100026.59;6128517;23;20013;-90
2022/08/05 14:16:08;;;;;;;29.83;9.82;;;;;;;30.95;31.81;100092.59;6105566;23;20510;-93
2022/08/05 14:18:35;;;;;;;44.22;11.18;;;;;;;30.94;33.49;100067.63;6153416;23;20017;-90
2022/08/05 14:21:01;;;;;;;;;;;;;;;31.09;33.10;100089.50;6106279;23;20025;-92
2022/08/05 14:23:29;;;;;;;42.95;11.40;;;;;;;30.62;32.00;100027.47;6129982;23;19979;-93
2022/08/05 14:26:17;;;;;;;47.78;11.25;;;;;;;31.05;34.25;100068.97;5990847;23;20023;-90
2022/08/05 14:28:43;;;;;;;;;;;;;;;31.22;35.37;100083.19;5964635;23;20110;-91
2022/08/05 14:31:34;;;;;;;52.08;11.23;;;;;;;30.91;33.75;100031.78;5905024;24;19926;-89
2022/08/05 14:34:05;;;;;;;39.67;10.23;;;;;;;30.93;34.07;100004.72;5928669;24;20028;-94
2022/08/05 14:41:08;;;;;;;;;;;;;;;;;;;;;
2022/08/05 14:58:14;;;;;;;29.88;10.63;;;;;;;31.21;31.64;99988.38;6144234;23;20044;-93
2022/08/05 15:01:45;;;;;;;22.33;11.13;;;;;;;31.20;31.30;99992.44;6053912;23;20080;-95
2022/08/05 15:04:11;;;;;;;30.60;10.68;;;;;;;31.62;32.94;100060.53;6042598;23;20021;-93
2022/08/05 15:07:15;;;;;;;;;;;;;;;;;;;;;
2022/08/05 15:14:34;;;;;;;28.38;10.70;;;;;;;31.26;31.87;100005.59;6130797;23;20030;-92
2022/08/05 15:17:44;;;;;;;19.63;9.55;;;;;;;31.15;33.17;99996.56;6088593;23;20092;-91
2022/08/05 15:23:23;;;;;;;12.98;9.00;;;;;;;31.21;32.04;100020.22;5979363;23;20050;-90
2022/08/05 15:32:54;;;;;;;;;;;;;;;;;;;;;
2022/08/05 15:36:11;;;;;;;30.08;11.10;;;;;;;31.09;33.82;100029.38;6080117;23;20634;-91
2022/08/05 15:47:17;;;;;;;;;;;;;;;;;;;;;
2022/08/05 15:53:46;;;;;;;40.65;13.02;;;;;;;30.57;35.48;100056.19;6169299;23;20025;-92
2022/08/05 18:46:35;;;;;;;91.18;26.60;;;;;;;24.25;53.92;100060.97;6152529;23;20021;-93
2022/08/05 18:54:52;;;;;;;110.82;36.05;;;;;;;23.82;62.28;100102.50;6133013;23;20013;-92
2022/08/05 18:57:19;;;;;;;102.65;39.45;;;;;;;23.89;63.73;100141.66;6106828;23;20384;-90
2022/08/05 18:59:45;;;;;;;111.43;45.92;;;;;;;23.40;65.12;100084.06;6082599;23;20100;-93
2022/08/05 19:02:12;;;;;;;80.38;38.20;;;;;;;23.65;62.53;100140.19;6156297;23;20053;-94
2022/08/05 19:04:39;;;;;;;86.25;35.90;;;;;;;23.31;63.23;100096.69;6082853;23;20040;-90
2022/08/05 19:07:08;;;;;;;100.07;46.72;;;;;;;23.44;63.28;100135.16;6131221;23;20021;-91
2022/08/05 19:09:34;;;;;;;124.30;53.17;;;;;;;23.21;64.94;100109.34;6082800;23;20017;-93
2022/08/05 19:12:01;;;;;;;103.68;41.38;;;;;;;23.13;62.76;100105.66;6082409;23;20017;-91
2022/08/05 19:14:31;;;;;;;;;;;;;;;23.27;62.37;100132.13;6107867;23;20017;-92
2022/08/05 19:17:13;;;;;;;;;;;;;;;;;;;;;
2022/08/05 19:23:28;;;;;;;151.65;75.35;;;;;;;22.67;62.83;100094.63;6112459;23;20435;-92
2022/08/05 19:25:55;;;;;;;155.98;79.45;;;;;;;22.77;62.47;100123.06;6113185;23;20051;-96
2022/08/05 19:28:29;;;;;;;102.85;50.67;;;;;;;22.32;58.93;100058.69;6083795;23;20542;-93
2022/08/05 19:31:54;;;;;;;113.60;61.38;;;;;;;22.84;64.98;100160.19;6114015;23;20033;-92
2022/08/05 19:34:33;;;;;;;;;;;;;;;;;;;;;
2022/08/05 19:37:54;;;;;;;95.28;50.22;;;;;;;22.27;68.56;100076.50;6124534;23;20017;-93
2022/08/05 19:40:20;;;;;;;132.13;58.92;;;;;;;22.27;67.09;100096.00;6108908;23;20044;-95
2022/08/05 19:42:47;;;;;;;117.05;58.15;;;;;;;22.01;67.76;100054.97;6109520;23;20065;-91
2022/08/05 19:45:14;;;;;;;136.40;69.03;;;;;;;22.45;66.56;100128.91;6082542;23;20233;-90
2022/08/05 19:47:41;;;;;;;94.78;48.85;;;;;;;21.90;64.56;100039.28;6108560;23;20018;-90
2022/08/05 19:50:10;;;;;;;73.03;33.50;;;;;;;22.43;58.91;100125.72;6112772;23;20537;-92
2022/08/05 19:52:37;;;;;;;73.25;35.90;;;;;;;22.28;60.09;100080.94;6086932;23;20018;-91
2022/08/05 19:55:12;;;;;;;119.57;56.08;;;;;;;22.31;63.71;100096.06;6113578;23;20108;-93
2022/08/05 19:58:36;;;;;;;;;;;;;;;;;;;;;
2022/08/05 20:01:54;;;;;;;;;;;;;;;22.64;62.48;100145.56;6040054;23;20034;-94
2022/08/05 21:09:05;;;;;;;66.13;31.75;;;;;;;22.33;55.28;100085.38;6139746;23;20464;-92
2022/08/05 21:25:49;;;;;;;73.22;26.55;;;;;;;22.58;54.16;100121.97;6131923;23;20024;-94
2022/08/05 21:28:30;;;;;;;71.65;25.23;;;;;;;22.59;55.04;100120.81;6083863;23;20091;31
2022/08/05 21:31:12;;;;;;;45.70;21.48;;;;;;;22.59;54.03;100114.44;6091568;23;20057;-95
2022/08/05 21:33:52;;;;;;;61.13;23.27;;;;;;;22.60;55.11;100124.41;6082982;23;20030;-94
2022/08/05 21:36:55;;;;;;;61.58;25.58;;;;;;;22.61;55.83;100118.44;6083533;23;20036;-95
2022/08/05 21:59:05;;;;;;;71.03;29.08;;;;;;;22.20;59.43;100125.75;6152624;23;20100;-93
2022/08/05 22:05:13;;;;;;;46.65;22.60;;;;;;;22.31;55.66;100131.47;6172442;23;20036;-93
2022/08/05 22:07:41;;;;;;;56.40;28.70;;;;;;;22.09;60.06;100100.47;6084291;23;20930;-96
2022/08/05 22:17:26;;;;;;;41.38;19.10;;;;;;;22.42;52.59;100088.72;6086997;23;20018;-94
2022/08/05 22:19:52;;;;;;;37.40;19.38;;;;;;;22.10;52.64;100040.00;6033919;23;20117;-93
2022/08/05 22:28:42;;;;;;;35.53;18.98;;;;;;;22.06;53.18;100048.31;6106770;23;20112;-94
2022/08/05 22:31:14;;;;;;;34.42;17.92;;;;;;;22.37;53.66;100091.00;6082569;23;20017;-92
2022/08/05 22:40:29;;;;;;;36.55;18.08;;;;;;;22.52;53.76;100127.06;6087355;23;20018;-94
2022/08/05 22:50:39;;;;;;;47.53;19.23;;;;;;;22.48;53.66;100133.75;6064678;23;20396;-93
2022/08/05 22:57:44;;;;;;;33.65;19.20;;;;;;;22.43;54.35;100134.88;6081946;23;20160;-95
2022/08/05 23:00:11;;;;;;;46.65;20.35;;;;;;;21.86;54.82;100058.72;6071376;23;20030;-93
2022/08/05 23:02:44;;;;;;;;;;;;;;;22.28;54.46;100135.81;6026293;23;20112;-91
2022/08/05 23:05:31;;;;;;;49.85;20.50;;;;;;;21.71;55.10;100048.47;6107885;23;20078;-92
2022/08/05 23:20:20;;;;;;;67.63;22.23;;;;;;;21.80;55.88;100077.69;6157516;23;20028;-95
2022/08/05 23:22:51;;;;;;;59.53;21.38;;;;;;;21.99;55.63;100101.09;6133100;23;20475;-92
2022/08/05 23:25:45;;;;;;;61.13;21.83;;;;;;;22.18;56.45;100131.66;6083570;23;20565;-92
2022/08/05 23:32:02;;;;;;;63.33;20.52;;;;;;;22.14;57.48;100132.75;6089885;23;20331;-95
2022/08/05 23:34:55;;;;;;;61.13;21.40;;;;;;;22.11;58.67;100141.84;6055180;23;20030;-92
2022/08/05 23:38:08;;;;;;;41.28;20.95;;;;;;;22.09;56.40;100145.03;6103197;23;20022;-95
2022/08/05 23:40:53;;;;;;;49.38;21.50;;;;;;;22.07;57.22;100141.78;6071073;23;20030;-92
2022/08/05 23:43:23;;;;;;;52.83;22.15;;;;;;;21.33;56.64;100025.91;6083395;23;20104;-95
2022/08/05 23:49:40;;;;;;;65.18;22.08;;;;;;;21.81;57.13;100107.13;6105665;23;20022;-92
2022/08/05 23:56:19;;;;;;;89.63;22.08;;;;;;;21.76;57.02;100107.44;6118407;23;20092;-93
2022/08/05 23:59:20;;;;;;;66.55;22.30;;;;;;;21.98;56.83;100142.03;6072412;23;20047;-92
